Time;durP1;ratioP1;P1;durP2;ratioP2;P2;SDS_P1;SDS_P2;PMS_P1;PMS_P2;Temp;Humidity;BMP_temperature;BMP_pressure;BME280_temperature;BME280_humidity;BME280_pressure;Samples;Min_cycle;Max_cycle;Signal;HPM_P1;HPM_P2
2022/07/08 00:01:19;;;;;;;2.80;1.08;;;22.70;54.40;;;;;;5024741;28;20029;-63
2022/07/08 00:03:45;;;;;;;3.28;1.15;;;22.70;54.50;;;;;;5010348;28;20104;-62
2022/07/08 00:06:10;;;;;;;2.67;1.02;;;22.70;54.50;;;;;;5029173;28;20034;-62
2022/07/08 00:08:36;;;;;;;2.45;1.10;;;22.70;54.40;;;;;;5028825;28;20721;-62
2022/07/08 00:11:02;;;;;;;4.03;1.10;;;22.70;54.40;;;;;;5011098;28;20048;-63
2022/07/08 00:13:28;;;;;;;2.88;1.00;;;22.70;54.40;;;;;;5010124;28;20786;-63
2022/07/08 00:15:54;;;;;;;3.15;1.23;;;22.70;54.50;;;;;;5030731;28;20045;-63
2022/07/08 00:18:19;;;;;;;2.75;1.10;;;22.70;54.40;;;;;;5029200;28;20041;-62
2022/07/08 00:20:45;;;;;;;2.20;1.02;;;22.70;54.40;;;;;;5031738;28;20713;-62
2022/07/08 00:23:11;;;;;;;2.58;1.33;;;22.70;54.40;;;;;;5027411;28;20183;-62
2022/07/08 00:25:36;;;;;;;4.57;1.15;;;22.70;55.10;;;;;;5007277;28;20049;-62
2022/07/08 00:28:02;;;;;;;1.63;0.90;;;22.70;54.40;;;;;;5027913;28;20041;-63
2022/07/08 00:30:28;;;;;;;1.98;0.90;;;22.70;54.40;;;;;;5029381;28;20041;-62
2022/07/08 00:32:53;;;;;;;3.42;0.93;;;22.70;54.30;;;;;;5028782;28;20040;-63
2022/07/08 00:35:19;;;;;;;3.80;1.08;;;22.70;54.30;;;;;;5028241;28;20065;-62
2022/07/08 00:37:45;;;;;;;1.65;0.98;;;22.70;54.40;;;;;;5028226;28;20073;-63
2022/07/08 00:40:11;;;;;;;4.55;1.23;;;22.70;54.30;;;;;;5027863;28;20033;-63
2022/07/08 00:42:37;;;;;;;2.85;1.20;;;22.70;54.30;;;;;;5028458;28;20103;-63
2022/07/08 00:45:03;;;;;;;2.75;1.10;;;22.70;54.30;;;;;;5027505;28;20037;-62
2022/07/08 00:47:29;;;;;;;2.95;1.10;;;22.70;54.30;;;;;;5029159;28;20049;-62
2022/07/08 00:49:55;;;;;;;3.90;1.05;;;22.70;54.30;;;;;;5030801;28;20045;-63
2022/07/08 00:52:21;;;;;;;4.00;1.30;;;22.70;54.30;;;;;;5028527;28;20056;-62
2022/07/08 00:54:47;;;;;;;2.05;0.85;;;22.70;54.30;;;;;;5011283;28;20040;-62
2022/07/08 00:57:14;;;;;;;3.53;1.15;;;22.70;54.30;;;;;;5005898;28;20772;-64
2022/07/08 00:59:40;;;;;;;3.38;1.17;;;22.70;54.30;;;;;;5028079;28;20904;-62
2022/07/08 01:02:06;;;;;;;3.45;1.15;;;22.70;54.30;;;;;;5026509;28;20040;-62
2022/07/08 01:04:32;;;;;;;3.35;1.00;;;22.70;54.30;;;;;;5009497;28;20041;-62
2022/07/08 01:06:57;;;;;;;2.90;1.00;;;22.70;54.30;;;;;;5027500;28;20080;-63
2022/07/08 01:09:23;;;;;;;4.15;1.30;;;22.70;54.20;;;;;;5027641;28;20048;-62
2022/07/08 01:11:49;;;;;;;2.97;1.27;;;22.70;54.30;;;;;;5031079;28;20473;-62
2022/07/08 01:14:16;;;;;;;2.63;0.90;;;22.60;54.30;;;;;;5014597;28;20744;-63
2022/07/08 01:16:42;;;;;;;2.53;1.10;;;22.70;54.30;;;;;;5031554;28;20115;-62
2022/07/08 01:19:08;;;;;;;1.70;0.82;;;22.70;54.20;;;;;;5033180;28;20400;-62
2022/07/08 01:21:33;;;;;;;3.45;1.02;;;22.60;54.20;;;;;;5014716;28;20042;-62
2022/07/08 01:23:59;;;;;;;4.60;1.10;;;22.60;54.10;;;;;;5034280;28;20033;-63
2022/07/08 01:26:25;;;;;;;4.88;1.52;;;22.60;54.10;;;;;;5010919;28;20187;-62
2022/07/08 01:28:51;;;;;;;3.58;1.08;;;22.60;54.10;;;;;;5031288;28;20563;-63
2022/07/08 01:31:17;;;;;;;3.85;0.98;;;22.60;54.10;;;;;;5020826;28;20140;-63
2022/07/08 01:33:42;;;;;;;2.90;1.00;;;22.60;54.10;;;;;;5031402;28;20037;-62
2022/07/08 01:36:08;;;;;;;2.22;1.10;;;22.60;54.10;;;;;;5031419;28;20374;-62
2022/07/08 01:38:34;;;;;;;2.55;1.05;;;22.60;54.10;;;;;;5032749;28;20655;-63
2022/07/08 01:41:00;;;;;;;3.95;1.05;;;22.60;54.10;;;;;;5030316;28;20049;-63
2022/07/08 01:43:26;;;;;;;3.20;1.13;;;22.60;54.10;;;;;;5034946;28;20401;-63
2022/07/08 01:45:51;;;;;;;2.97;0.85;;;22.60;54.10;;;;;;5030907;28;20056;-63
2022/07/08 01:48:17;;;;;;;3.28;0.98;;;22.60;54.10;;;;;;5013430;28;20049;-62
2022/07/08 01:50:43;;;;;;;1.88;0.98;;;22.60;54.10;;;;;;5032520;28;20072;-63
2022/07/08 01:53:09;;;;;;;1.73;0.70;;;22.60;54.10;;;;;;5032860;28;20045;-62
2022/07/08 01:55:34;;;;;;;2.60;0.88;;;22.60;54.10;;;;;;5014466;28;20053;-62
2022/07/08 01:58:00;;;;;;;3.88;0.98;;;22.60;54.10;;;;;;5029211;28;20041;-63
2022/07/08 02:00:26;;;;;;;1.67;0.60;;;22.60;54.00;;;;;;5013653;28;20041;-62
2022/07/08 02:02:51;;;;;;;4.18;1.05;;;22.60;54.00;;;;;;5030888;28;20170;-64
2022/07/08 02:05:17;;;;;;;3.63;1.05;;;22.60;54.10;;;;;;5030457;28;20964;-64
2022/07/08 02:07:43;;;;;;;1.42;0.82;;;22.60;54.00;;;;;;5033077;28;20033;-64
2022/07/08 02:10:09;;;;;;;4.68;1.38;;;22.60;54.00;;;;;;5017468;28;20089;-62
2022/07/08 02:12:35;;;;;;;3.53;1.05;;;22.60;54.00;;;;;;5028416;28;20091;-62
2022/07/08 02:15:04;;;;;;;2.70;0.80;;;22.60;54.00;;;;;;5028516;28;21798;-63
2022/07/08 02:17:41;;;;;;;3.15;1.17;;;22.60;53.90;;;;;;5015040;28;20049;-62
2022/07/08 02:20:12;;;;;;;2.65;0.82;;;22.60;53.90;;;;;;5011346;28;20041;-63
2022/07/08 02:22:38;;;;;;;3.10;0.80;;;22.60;53.90;;;;;;4984525;28;20846;-64
2022/07/08 02:25:04;;;;;;;3.47;1.00;;;22.60;53.90;;;;;;5027707;28;20050;-63
2022/07/08 02:27:31;;;;;;;2.20;0.95;;;22.60;53.90;;;;;;5032311;28;20045;-63
2022/07/08 02:29:56;;;;;;;3.47;0.88;;;22.60;53.90;;;;;;5027697;28;20044;-63
2022/07/08 02:32:22;;;;;;;3.67;0.82;;;22.60;54.00;;;;;;5013714;28;20095;-63
2022/07/08 02:34:48;;;;;;;3.20;1.00;;;22.60;54.00;;;;;;5034305;28;20141;-62
2022/07/08 02:37:13;;;;;;;2.05;0.63;;;22.60;53.90;;;;;;5028418;28;20038;-62
2022/07/08 02:39:39;;;;;;;3.97;0.95;;;22.60;53.90;;;;;;5030756;28;20602;-63
2022/07/08 02:42:05;;;;;;;3.63;1.10;;;22.50;53.90;;;;;;5029963;28;20045;-63
2022/07/08 02:44:31;;;;;;;3.53;1.20;;;22.50;53.80;;;;;;5030755;28;20033;-63
2022/07/08 02:46:57;;;;;;;2.67;0.95;;;22.50;53.80;;;;;;5031340;28;20543;-62
2022/07/08 02:49:23;;;;;;;1.80;0.90;;;22.50;53.80;;;;;;5032617;28;20033;-62
2022/07/08 02:51:48;;;;;;;2.55;0.93;;;22.50;53.80;;;;;;5031475;28;20034;-62
2022/07/08 02:54:14;;;;;;;2.80;0.90;;;22.50;53.80;;;;;;5030514;28;20533;-63
2022/07/08 02:56:40;;;;;;;2.58;0.63;;;22.50;53.70;;;;;;5010026;28;20052;-63
2022/07/08 02:59:06;;;;;;;2.03;0.70;;;22.50;53.70;;;;;;5030899;28;20477;-63
2022/07/08 03:01:32;;;;;;;3.55;1.25;;;22.50;53.80;;;;;;5031259;28;20406;-63
2022/07/08 03:03:57;;;;;;;1.58;1.08;;;22.50;53.70;;;;;;5032887;28;20083;-62
2022/07/08 03:06:23;;;;;;;1.77;0.70;;;22.50;53.80;;;;;;5031145;28;20453;-62
2022/07/08 03:08:49;;;;;;;2.47;0.98;;;22.50;53.70;;;;;;4993330;28;20180;-62
2022/07/08 03:11:15;;;;;;;3.13;1.10;;;22.50;53.70;;;;;;5031374;28;20474;-63
2022/07/08 03:13:40;;;;;;;2.38;0.90;;;22.50;53.80;;;;;;5027507;28;20325;-62
2022/07/08 03:16:06;;;;;;;3.33;0.90;;;22.50;53.70;;;;;;5014473;28;20123;-62
2022/07/08 03:18:33;;;;;;;1.95;0.80;;;22.50;53.70;;;;;;5029144;28;20040;-62
2022/07/08 03:20:59;;;;;;;3.08;0.80;;;22.50;53.60;;;;;;5028627;28;20042;-63
2022/07/08 03:23:25;;;;;;;2.22;0.75;;;22.50;53.70;;;;;;5031608;28;20048;-62
2022/07/08 03:25:50;;;;;;;2.72;1.05;;;22.50;53.70;;;;;;5030015;28;20037;-64
2022/07/08 03:28:16;;;;;;;3.30;0.60;;;22.50;53.70;;;;;;5027208;28;20274;-63
2022/07/08 03:30:42;;;;;;;3.00;1.25;;;22.50;53.70;;;;;;5012226;28;20049;-62
2022/07/08 03:33:08;;;;;;;3.30;0.65;;;22.50;53.70;;;;;;5027681;28;20484;-62
2022/07/08 03:35:33;;;;;;;2.10;0.80;;;22.50;53.60;;;;;;5029503;28;20056;-62
2022/07/08 03:37:59;;;;;;;3.10;0.95;;;22.50;53.70;;;;;;5029682;28;20375;-63
2022/07/08 03:43:09;;;;;;;1.55;0.70;;;22.40;53.60;;;;;;5027638;28;20037;-63
2022/07/08 03:45:35;;;;;;;1.10;0.60;;;22.50;53.70;;;;;;5009487;28;20053;-62
2022/07/08 03:48:02;;;;;;;2.35;0.77;;;22.50;53.70;;;;;;5024814;28;20055;-63
2022/07/08 03:50:28;;;;;;;3.38;1.20;;;22.50;53.60;;;;;;5030368;28;20079;-62
2022/07/08 03:52:54;;;;;;;2.80;1.00;;;22.40;54.30;;;;;;5011653;28;20053;-62
2022/07/08 03:55:22;;;;;;;2.78;0.98;;;22.50;53.60;;;;;;5028602;28;20148;-62
2022/07/08 03:57:48;;;;;;;2.85;1.05;;;22.40;53.60;;;;;;5008652;28;20038;-62
2022/07/08 04:00:14;;;;;;;2.55;0.80;;;22.40;53.60;;;;;;5025882;28;20396;-63
2022/07/08 04:02:40;;;;;;;2.30;0.80;;;22.50;53.70;;;;;;5028752;28;20092;-63
2022/07/08 04:05:06;;;;;;;1.85;0.75;;;22.40;53.60;;;;;;5026829;28;20040;-62
2022/07/08 04:07:34;;;;;;;2.95;0.93;;;22.40;53.60;;;;;;5011455;28;20694;-62
2022/07/08 04:10:00;;;;;;;2.55;0.85;;;22.50;53.60;;;;;;5028427;28;20041;-62
2022/07/08 04:12:26;;;;;;;2.17;0.60;;;22.40;54.30;;;;;;5028666;28;20047;-62
2022/07/08 04:14:52;;;;;;;1.80;0.85;;;22.40;53.60;;;;;;5029372;28;20466;-62
2022/07/08 04:17:17;;;;;;;3.40;0.80;;;22.40;53.60;;;;;;5010934;28;20041;-63
2022/07/08 04:19:43;;;;;;;2.58;0.93;;;22.40;53.60;;;;;;5027694;28;20385;-62
2022/07/08 04:22:08;;;;;;;2.67;0.90;;;22.40;53.60;;;;;;5011933;28;20481;-62
2022/07/08 04:24:34;;;;;;;2.22;0.70;;;22.40;53.60;;;;;;5029564;28;20049;-62
2022/07/08 04:27:00;;;;;;;2.95;0.80;;;22.40;53.50;;;;;;5012090;28;20041;-62
2022/07/08 04:29:25;;;;;;;1.40;0.70;;;22.40;53.50;;;;;;5029068;28;20080;-62
2022/07/08 04:31:51;;;;;;;2.33;1.00;;;22.40;53.60;;;;;;5030050;28;20057;-62
2022/07/08 04:34:17;;;;;;;2.15;0.80;;;22.40;53.60;;;;;;5028959;28;20157;-62
2022/07/08 04:36:42;;;;;;;3.38;0.75;;;22.40;53.50;;;;;;5008340;28;20505;-63
2022/07/08 04:39:08;;;;;;;2.28;0.70;;;22.40;53.60;;;;;;5029827;28;20033;-62
2022/07/08 04:41:34;;;;;;;4.15;0.90;;;22.40;53.50;;;;;;5030659;28;20488;-62
2022/07/08 04:43:59;;;;;;;1.92;0.70;;;22.40;53.50;;;;;;5027486;28;20501;-62
2022/07/08 04:46:25;;;;;;;5.57;1.02;;;22.40;53.50;;;;;;5028987;28;20127;-62
2022/07/08 04:48:52;;;;;;;2.83;1.00;;;22.40;53.90;;;;;;5026300;28;20037;-63
2022/07/08 04:51:18;;;;;;;2.75;0.90;;;22.40;53.60;;;;;;5005319;28;20056;-63
2022/07/08 04:53:44;;;;;;;2.03;1.10;;;22.40;53.50;;;;;;5025335;28;20033;-62
2022/07/08 04:56:10;;;;;;;4.07;0.75;;;22.40;53.50;;;;;;5009957;28;20041;-62
2022/07/08 04:58:36;;;;;;;1.70;0.73;;;22.40;53.60;;;;;;5028202;28;20381;-62
2022/07/08 05:01:02;;;;;;;2.45;0.90;;;22.40;53.50;;;;;;5024340;28;20051;-63
2022/07/08 05:03:28;;;;;;;1.05;0.50;;;22.40;53.50;;;;;;5010055;28;20041;-62
2022/07/08 05:05:53;;;;;;;2.90;0.80;;;22.40;53.60;;;;;;4993484;28;20477;-62
2022/07/08 05:08:19;;;;;;;2.28;0.88;;;22.40;53.60;;;;;;5025888;28;20045;-62
2022/07/08 05:10:45;;;;;;;3.88;1.10;;;22.40;53.60;;;;;;5026751;28;20153;-62
2022/07/08 05:13:12;;;;;;;2.80;0.80;;;22.40;53.60;;;;;;5025257;28;20064;-62
2022/07/08 05:15:38;;;;;;;2.45;0.80;;;22.40;53.60;;;;;;5024902;28;20091;-62
2022/07/08 05:18:03;;;;;;;3.60;0.88;;;22.40;53.70;;;;;;5009600;28;20041;-63
2022/07/08 05:20:30;;;;;;;2.35;0.82;;;22.40;53.70;;;;;;5004997;28;20045;-63
2022/07/08 05:22:56;;;;;;;1.40;0.65;;;22.40;53.80;;;;;;5027621;28;20045;-62
2022/07/08 05:25:21;;;;;;;3.08;0.68;;;22.40;53.70;;;;;;5013558;28;20626;-63
2022/07/08 05:27:47;;;;;;;3.58;0.98;;;22.40;53.70;;;;;;5027995;28;20236;-63
2022/07/08 05:30:13;;;;;;;3.10;0.75;;;22.40;53.70;;;;;;5005191;28;20041;-63
2022/07/08 05:32:40;;;;;;;3.10;0.88;;;22.40;54.50;;;;;;5028881;28;20596;-62
2022/07/08 05:35:07;;;;;;;1.67;0.70;;;22.40;53.80;;;;;;5026819;28;20049;-62
2022/07/08 05:37:36;;;;;;;2.13;0.93;;;22.40;53.80;;;;;;5027354;28;20041;-62
2022/07/08 05:40:02;;;;;;;3.63;0.82;;;22.30;53.80;;;;;;5027580;28;20113;-63
2022/07/08 05:42:28;;;;;;;2.58;1.05;;;22.30;53.80;;;;;;5010194;28;20068;-62
2022/07/08 05:44:53;;;;;;;4.35;0.90;;;22.30;53.80;;;;;;5024150;28;20415;-62
2022/07/08 05:47:19;;;;;;;3.05;0.90;;;22.40;53.90;;;;;;5029725;28;20092;-62
2022/07/08 05:49:45;;;;;;;2.97;0.90;;;22.30;53.90;;;;;;5029380;28;20393;-62
2022/07/08 05:52:11;;;;;;;4.72;1.33;;;22.30;53.90;;;;;;5010906;28;20984;-62
2022/07/08 05:54:38;;;;;;;1.90;0.90;;;22.30;53.90;;;;;;5007474;28;20142;-63
2022/07/08 05:57:04;;;;;;;2.03;0.93;;;22.30;53.90;;;;;;5029548;28;20037;-62
2022/07/08 05:59:31;;;;;;;2.72;0.75;;;22.30;54.00;;;;;;5031054;28;20373;-62
2022/07/08 06:01:57;;;;;;;2.47;0.90;;;22.30;54.00;;;;;;5031740;28;20425;-63
2022/07/08 06:04:22;;;;;;;2.65;0.82;;;22.30;54.00;;;;;;5030525;28;20037;-62
2022/07/08 06:06:48;;;;;;;2.10;0.90;;;22.30;54.00;;;;;;5010889;28;20029;-63
2022/07/08 06:09:14;;;;;;;3.08;0.93;;;22.30;54.10;;;;;;5031535;28;20048;-62
2022/07/08 06:11:40;;;;;;;3.75;0.93;;;22.30;54.10;;;;;;5012918;28;20048;-62
2022/07/08 06:14:05;;;;;;;2.13;0.70;;;22.30;54.10;;;;;;5008247;28;20044;-62
2022/07/08 06:16:31;;;;;;;3.65;0.80;;;22.30;54.20;;;;;;5032084;28;20498;-64
2022/07/08 06:18:57;;;;;;;2.75;0.95;;;22.30;54.20;;;;;;5031660;28;20025;-62
2022/07/08 06:21:23;;;;;;;3.17;1.00;;;22.30;54.20;;;;;;5032692;28;20037;-63
2022/07/08 06:23:48;;;;;;;3.50;1.27;;;22.30;54.20;;;;;;5031217;28;20123;-62
2022/07/08 06:26:14;;;;;;;2.60;0.68;;;22.30;54.20;;;;;;5029721;28;20068;-62
2022/07/08 06:28:39;;;;;;;1.63;0.68;;;22.30;54.30;;;;;;5010697;28;20477;-61
2022/07/08 06:31:06;;;;;;;2.13;0.80;;;22.30;54.30;;;;;;5029100;28;20033;-60
2022/07/08 06:33:31;;;;;;;2.40;0.80;;;22.30;54.40;;;;;;5029082;28;20508;-63
2022/07/08 06:35:57;;;;;;;3.10;0.85;;;22.30;54.80;;;;;;5029458;28;20045;-63
2022/07/08 06:38:22;;;;;;;4.05;0.88;;;22.30;55.00;;;;;;5027892;28;20057;-62
2022/07/08 06:40:48;;;;;;;4.55;1.05;;;22.40;55.10;;;;;;5029011;28;20140;-63
2022/07/08 06:43:14;;;;;;;3.80;0.95;;;22.40;55.10;;;;;;5030836;28;20220;-62
2022/07/08 06:45:40;;;;;;;6.55;1.00;;;22.40;55.30;;;;;;5018725;28;20048;-63
2022/07/08 06:48:06;;;;;;;2.42;1.02;;;22.40;55.70;;;;;;5026980;28;20512;-62
2022/07/08 06:50:32;;;;;;;6.25;1.02;;;22.40;56.00;;;;;;5012146;28;20077;-62
2022/07/08 06:52:58;;;;;;;5.05;1.10;;;22.50;55.80;;;;;;5029429;28;20051;-62
2022/07/08 06:55:24;;;;;;;4.25;0.80;;;22.50;56.00;;;;;;5028243;28;20470;-61
2022/07/08 06:57:50;;;;;;;5.78;0.90;;;22.50;56.30;;;;;;5026917;28;20049;-62
2022/07/08 07:00:15;;;;;;;3.90;1.20;;;22.50;56.50;;;;;;5024775;28;20060;-63
2022/07/08 07:02:41;;;;;;;5.13;1.17;;;22.50;56.50;;;;;;4994183;28;20037;-62
2022/07/08 07:05:08;;;;;;;3.72;1.08;;;22.50;56.30;;;;;;5027465;28;20080;-62
2022/07/08 07:07:34;;;;;;;6.18;1.27;;;22.50;56.70;;;;;;5026622;28;20048;-62
2022/07/08 07:10:00;;;;;;;7.97;1.20;;;22.50;56.90;;;;;;5028451;28;20037;-62
2022/07/08 07:12:26;;;;;;;4.60;0.98;;;22.50;56.90;;;;;;5029504;28;20049;-62
2022/07/08 07:14:51;;;;;;;5.10;0.93;;;22.60;57.00;;;;;;5008053;28;20064;-62
2022/07/08 07:17:21;;;;;;;3.28;1.02;;;22.60;57.00;;;;;;5030888;28;20040;-63
2022/07/08 07:19:48;;;;;;;3.60;1.15;;;22.50;57.50;;;;;;5029072;28;20037;-62
2022/07/08 07:22:14;;;;;;;5.72;1.27;;;22.60;57.20;;;;;;4989785;28;20440;-62
2022/07/08 07:24:40;;;;;;;4.55;1.05;;;22.60;57.20;;;;;;5010726;28;20481;-63
2022/07/08 07:27:06;;;;;;;3.92;1.10;;;22.60;57.20;;;;;;5027015;28;20543;-63
2022/07/08 07:29:32;;;;;;;2.35;1.20;;;22.60;58.00;;;;;;5029202;28;20053;-63
2022/07/08 07:31:58;;;;;;;2.38;0.82;;;22.60;57.30;;;;;;5024617;28;20120;-63
2022/07/08 07:34:24;;;;;;;6.05;0.95;;;22.60;57.40;;;;;;5027654;28;20045;-62
2022/07/08 07:36:50;;;;;;;4.60;1.00;;;22.60;57.40;;;;;;5025957;28;20401;-62
2022/07/08 07:39:15;;;;;;;4.43;1.00;;;22.60;57.40;;;;;;5027754;28;20041;-62
2022/07/08 07:41:41;;;;;;;4.20;1.00;;;22.60;57.40;;;;;;5028375;28;20520;-62
2022/07/08 07:44:06;;;;;;;3.58;0.95;;;22.60;57.50;;;;;;5028248;28;20716;-62
2022/07/08 07:46:33;;;;;;;6.10;1.23;;;22.60;57.60;;;;;;5026819;28;20050;-63
2022/07/08 07:48:58;;;;;;;5.00;1.20;;;22.60;57.60;;;;;;5030228;28;20045;-62
2022/07/08 07:51:24;;;;;;;5.45;0.90;;;22.60;57.70;;;;;;5012731;28;20482;-63
2022/07/08 07:53:50;;;;;;;4.03;1.27;;;22.60;57.90;;;;;;5008952;28;20493;-62
2022/07/08 07:56:16;;;;;;;3.25;1.00;;;22.60;58.00;;;;;;5024896;28;20033;-66
2022/07/08 07:58:41;;;;;;;2.63;0.70;;;22.60;57.80;;;;;;5008763;28;20140;-62
2022/07/08 08:01:07;;;;;;;5.15;1.30;;;22.60;57.70;;;;;;5023493;28;20033;-62
2022/07/08 08:03:33;;;;;;;4.70;1.25;;;22.60;57.70;;;;;;5026729;28;20029;-61
2022/07/08 08:05:59;;;;;;;4.13;1.00;;;22.60;57.90;;;;;;5026327;28;20037;-62
2022/07/08 08:08:26;;;;;;;3.85;1.17;;;22.60;58.30;;;;;;5028160;28;20652;-62
2022/07/08 08:10:52;;;;;;;4.40;1.23;;;22.60;59.30;;;;;;5022653;28;20048;-62
2022/07/08 08:13:18;;;;;;;6.07;1.05;;;22.60;58.70;;;;;;5030257;28;20457;-62
2022/07/08 08:15:44;;;;;;;4.30;1.40;;;22.60;58.90;;;;;;5026279;28;20036;-62
2022/07/08 08:18:09;;;;;;;8.23;1.45;;;22.70;58.90;;;;;;5006326;28;20500;-61
2022/07/08 08:20:35;;;;;;;5.35;1.13;;;22.70;59.10;;;;;;5023456;28;20894;-61
2022/07/08 08:23:01;;;;;;;4.20;1.30;;;22.70;59.20;;;;;;5025562;28;20479;-61
2022/07/08 08:25:27;;;;;;;4.55;1.40;;;22.70;59.40;;;;;;5026635;28;20041;-61
2022/07/08 08:27:53;;;;;;;4.82;1.67;;;22.70;59.50;;;;;;5023476;28;20041;-62
2022/07/08 08:30:19;;;;;;;3.55;1.17;;;22.70;59.50;;;;;;5019700;28;20042;-61
2022/07/08 08:32:45;;;;;;;4.55;1.25;;;22.70;59.60;;;;;;5022469;28;20037;-62
2022/07/08 08:35:10;;;;;;;3.85;1.17;;;22.70;59.50;;;;;;5006479;28;20054;-61
2022/07/08 08:37:36;;;;;;;6.05;1.30;;;22.70;59.60;;;;;;5022154;28;20148;-62
2022/07/08 08:40:08;;;;;;;4.20;1.17;;;22.70;59.60;;;;;;5020566;28;20037;-62
2022/07/08 08:42:34;;;;;;;5.32;1.30;;;22.70;59.60;;;;;;5023165;28;20040;-61
2022/07/08 08:45:00;;;;;;;5.47;1.27;;;22.70;59.70;;;;;;5021966;28;20033;-62
2022/07/08 08:47:30;;;;;;;7.82;1.40;;;22.70;59.70;;;;;;5000992;28;20045;-61
2022/07/08 08:49:57;;;;;;;4.35;1.30;;;22.70;59.80;;;;;;5022210;28;20045;-61
2022/07/08 08:52:24;;;;;;;4.40;1.10;;;22.70;59.80;;;;;;5023032;28;20033;-59
2022/07/08 08:54:51;;;;;;;5.20;1.30;;;22.70;59.80;;;;;;5006559;28;20082;-62
2022/07/08 08:57:18;;;;;;;4.25;1.20;;;22.70;59.80;;;;;;5022123;28;20095;-62
2022/07/08 08:59:46;;;;;;;4.97;1.30;;;22.70;60.00;;;;;;5010801;28;20045;-62
2022/07/08 09:02:12;;;;;;;3.75;1.25;;;22.70;60.00;;;;;;4989786;28;20045;-62
2022/07/08 09:04:38;;;;;;;4.85;1.58;;;22.70;60.10;;;;;;5028951;28;20088;-61
2022/07/08 09:07:05;;;;;;;3.35;1.30;;;22.70;60.10;;;;;;5027729;28;20920;-62
2022/07/08 09:09:30;;;;;;;3.47;1.10;;;22.80;60.30;;;;;;5027828;28;20501;-61
2022/07/08 09:11:56;;;;;;;4.47;1.50;;;22.70;60.30;;;;;;5028046;28;20124;-62
2022/07/08 09:14:23;;;;;;;5.22;1.30;;;22.80;60.30;;;;;;5027923;28;20041;-62
2022/07/08 09:17:18;;;;;;;5.40;1.73;;;22.80;60.40;;;;;;5008093;28;20046;-62
2022/07/08 09:19:50;;;;;;;5.80;1.50;;;22.80;60.40;;;;;;5027429;28;20052;-62
2022/07/08 09:22:16;;;;;;;4.07;1.20;;;22.80;60.30;;;;;;5024919;28;20147;-61
2022/07/08 09:24:44;;;;;;;3.72;1.52;;;22.80;60.20;;;;;;5024089;28;20048;-61
2022/07/08 09:27:10;;;;;;;3.83;1.50;;;22.80;60.00;;;;;;5022637;28;20749;-62
2022/07/08 09:29:54;;;;;;;5.43;1.50;;;22.80;60.00;;;;;;5021130;28;20879;-62
2022/07/08 09:32:19;;;;;;;3.47;1.35;;;22.80;60.00;;;;;;5026586;28;20128;-63
2022/07/08 09:34:45;;;;;;;2.35;1.00;;;22.80;60.00;;;;;;5026341;28;20037;-62
2022/07/08 09:37:13;;;;;;;5.22;1.27;;;22.80;59.90;;;;;;5030353;28;20305;-63
2022/07/08 09:39:39;;;;;;;5.03;1.33;;;22.80;59.80;;;;;;5028485;28;20096;-62
2022/07/08 09:42:08;;;;;;;4.28;1.20;;;22.80;59.70;;;;;;5030589;28;20032;-63
2022/07/08 09:44:36;;;;;;;5.15;1.23;;;22.80;59.70;;;;;;5031076;28;20053;-63
2022/07/08 09:47:11;;;;;;;2.88;1.17;;;22.70;59.60;;;;;;4996704;28;20108;-63
2022/07/08 09:49:46;;;;;;;2.95;1.35;;;22.80;59.60;;;;;;4968254;28;20104;-61
2022/07/08 09:52:20;;;;;;;2.47;1.00;;;22.80;59.70;;;;;;5000427;28;20030;-62
2022/07/08 09:54:45;;;;;;;4.40;1.30;;;22.80;59.80;;;;;;5003510;28;20056;-63
2022/07/08 09:57:13;;;;;;;8.25;1.55;;;22.80;60.20;;;;;;4969204;28;20045;-63
2022/07/08 09:59:39;;;;;;;6.43;1.20;;;22.80;60.40;;;;;;4983837;28;20678;-62
2022/07/08 10:02:05;;;;;;;3.85;1.13;;;22.80;60.30;;;;;;4984870;28;20046;-63
2022/07/08 10:04:31;;;;;;;5.35;1.35;;;22.80;60.30;;;;;;5000904;28;20495;-63
2022/07/08 10:06:58;;;;;;;5.47;1.30;;;22.80;60.30;;;;;;5003696;28;20052;-63
2022/07/08 10:09:25;;;;;;;6.50;1.33;;;22.80;60.10;;;;;;4983368;28;20569;-62
2022/07/08 10:11:51;;;;;;;3.85;1.40;;;22.80;60.00;;;;;;5000386;28;20052;-62
2022/07/08 10:14:19;;;;;;;4.93;1.45;;;22.80;59.90;;;;;;4982413;28;20041;-62
2022/07/08 10:16:46;;;;;;;6.00;1.48;;;22.80;59.80;;;;;;4994902;28;20057;-62
2022/07/08 10:19:19;;;;;;;4.90;1.15;;;22.80;59.90;;;;;;4984032;28;20097;-63
2022/07/08 10:21:50;;;;;;;2.97;1.23;;;22.80;60.00;;;;;;4997773;28;20042;-63
2022/07/08 10:24:22;;;;;;;4.30;1.35;;;22.80;60.00;;;;;;4997116;28;20049;-62
2022/07/08 10:26:48;;;;;;;3.38;1.10;;;22.80;59.90;;;;;;4984304;28;20697;-63
2022/07/08 10:29:14;;;;;;;7.07;1.65;;;22.80;59.90;;;;;;5002125;28;20045;-62
2022/07/08 10:31:53;;;;;;;2.85;1.27;;;22.80;59.90;;;;;;5003041;28;20046;-62
2022/07/08 10:34:30;;;;;;;4.30;1.33;;;22.80;59.90;;;;;;5001100;28;20045;-62
2022/07/08 10:36:56;;;;;;;4.70;1.20;;;22.80;60.00;;;;;;4969884;28;20069;-62
2022/07/08 10:39:30;;;;;;;3.58;1.27;;;22.80;60.30;;;;;;5000511;28;20485;-62
2022/07/08 10:41:56;;;;;;;5.13;1.30;;;22.80;60.20;;;;;;5002867;28;20045;-63
2022/07/08 10:44:44;;;;;;;6.70;1.50;;;22.80;60.20;;;;;;5002758;28;20054;-63
2022/07/08 10:47:16;;;;;;;3.97;1.30;;;22.80;60.00;;;;;;4985239;28;20042;-63
2022/07/08 10:49:46;;;;;;;3.45;1.27;;;22.80;60.00;;;;;;5030001;28;20049;-62
2022/07/08 10:52:13;;;;;;;2.40;1.30;;;22.80;60.10;;;;;;5028188;28;20041;-62
2022/07/08 10:54:39;;;;;;;2.63;1.05;;;22.80;60.00;;;;;;5028187;28;20049;-63
2022/07/08 10:57:26;;;;;;;3.80;1.35;;;22.80;60.10;;;;;;5023340;28;20131;-62
2022/07/08 11:00:18;;;;;;;4.00;1.63;;;22.90;60.20;;;;;;5010544;28;20073;-62
2022/07/08 11:02:46;;;;;;;2.97;1.20;;;22.80;60.10;;;;;;5007914;28;20390;-63
2022/07/08 11:05:40;;;;;;;5.07;1.40;;;22.80;60.20;;;;;;5030338;28;20080;-62
2022/07/08 11:08:21;;;;;;;5.32;1.60;;;22.80;60.30;;;;;;5028187;28;20049;-61
2022/07/08 11:10:48;;;;;;;3.30;1.30;;;22.80;60.20;;;;;;5029586;28;20048;-64
2022/07/08 11:13:14;;;;;;;3.90;1.48;;;22.80;60.00;;;;;;5029781;28;20036;-62
2022/07/08 11:15:40;;;;;;;3.05;1.10;;;22.80;60.00;;;;;;5028300;28;20038;-62
2022/07/08 11:18:06;;;;;;;3.50;1.48;;;22.80;60.00;;;;;;5027834;28;20129;-63
2022/07/08 11:20:32;;;;;;;2.58;1.13;;;22.80;60.10;;;;;;5029703;28;20052;-63
2022/07/08 11:23:03;;;;;;;3.63;1.33;;;22.80;60.20;;;;;;5029475;28;20061;-62
2022/07/08 11:25:30;;;;;;;4.05;1.48;;;22.80;60.40;;;;;;5031084;28;20037;-62
2022/07/08 11:27:56;;;;;;;4.03;1.20;;;22.80;60.40;;;;;;5030561;28;20506;-63
2022/07/08 11:30:22;;;;;;;6.18;1.25;;;22.80;60.50;;;;;;5028395;28;20618;-61
2022/07/08 11:32:48;;;;;;;3.90;1.30;;;22.90;60.50;;;;;;5024551;28;20040;-61
2022/07/08 11:35:17;;;;;;;2.45;1.50;;;22.80;60.40;;;;;;5025055;28;20037;-61
2022/07/08 11:37:44;;;;;;;5.70;1.38;;;22.90;60.50;;;;;;5024466;28;20129;-61
2022/07/08 11:40:11;;;;;;;3.97;1.40;;;22.80;60.50;;;;;;5008314;28;20037;-61
2022/07/08 11:42:37;;;;;;;8.93;1.52;;;22.80;60.60;;;;;;5029531;28;20129;-61
2022/07/08 11:45:05;;;;;;;4.75;1.70;;;22.80;60.50;;;;;;5028665;28;20030;-62
2022/07/08 11:47:31;;;;;;;5.35;1.42;;;22.80;60.60;;;;;;5027563;28;20095;-61
2022/07/08 11:49:57;;;;;;;4.07;1.45;;;22.90;60.70;;;;;;5027422;28;20595;-63
2022/07/08 11:52:25;;;;;;;4.88;1.35;;;22.90;60.70;;;;;;5025179;28;20036;-62
2022/07/08 11:54:51;;;;;;;3.75;1.38;;;22.90;60.60;;;;;;5027151;28;20037;-62
2022/07/08 11:57:17;;;;;;;3.03;1.30;;;22.90;60.50;;;;;;5027477;28;20060;-63
2022/07/08 11:59:45;;;;;;;3.72;1.20;;;22.90;60.50;;;;;;5028928;28;20043;-63
2022/07/08 12:02:11;;;;;;;5.20;1.38;;;22.90;60.50;;;;;;4997647;28;20084;-62
2022/07/08 12:04:37;;;;;;;4.65;1.20;;;22.90;60.50;;;;;;5029501;28;21072;-63
2022/07/08 12:07:18;;;;;;;3.42;1.30;;;22.90;60.60;;;;;;5029316;28;20033;-62
2022/07/08 12:09:53;;;;;;;3.92;1.42;;;22.90;60.60;;;;;;5027079;28;20060;-63
2022/07/08 12:12:21;;;;;;;4.05;1.70;;;22.90;60.50;;;;;;5027782;28;20042;-62
2022/07/08 12:14:47;;;;;;;5.60;1.63;;;22.90;60.60;;;;;;5025537;28;20044;-61
2022/07/08 12:17:22;;;;;;;5.32;1.40;;;22.90;60.50;;;;;;5028415;28;20377;-62
2022/07/08 12:19:47;;;;;;;6.35;1.35;;;22.90;60.50;;;;;;5029894;28;20263;-62
2022/07/08 12:22:14;;;;;;;4.47;1.55;;;22.90;60.50;;;;;;5027543;28;20030;-61
2022/07/08 12:24:41;;;;;;;5.15;1.77;;;22.90;60.60;;;;;;5027369;28;20458;-61
2022/07/08 12:27:08;;;;;;;3.15;1.30;;;22.90;60.60;;;;;;5028793;28;20046;-63
2022/07/08 12:29:38;;;;;;;4.45;1.25;;;22.90;60.60;;;;;;5026740;28;20049;-61
2022/07/08 12:32:08;;;;;;;3.97;1.25;;;22.90;60.60;;;;;;5026387;28;20041;-61
2022/07/08 12:34:35;;;;;;;3.90;1.20;;;22.90;60.60;;;;;;5028641;28;20962;-61
2022/07/08 12:37:15;;;;;;;3.80;1.60;;;22.90;60.60;;;;;;5028704;28;20513;-62
2022/07/08 12:39:40;;;;;;;4.03;1.42;;;22.90;60.60;;;;;;5010343;28;20048;-62
2022/07/08 12:42:07;;;;;;;3.83;1.30;;;22.90;60.60;;;;;;5028425;28;20041;-63
2022/07/08 12:44:39;;;;;;;4.38;1.30;;;22.90;61.30;;;;;;5009374;28;20040;-63
2022/07/08 12:47:10;;;;;;;2.55;1.33;;;22.90;60.60;;;;;;5010926;28;20053;-66
2022/07/08 12:49:37;;;;;;;4.47;1.38;;;22.90;60.60;;;;;;5022140;28;20057;-61